sensor_id;sensor_type;location;lat;lon;timestamp;temperature;humidity
22319;DHT22;11327;52.334;9.506;2022-09-01T00:01:12;14.00;99.90
22319;DHT22;11327;52.334;9.506;2022-09-01T00:04:38;13.90;99.90
22319;DHT22;11327;52.334;9.506;2022-09-01T00:07:59;13.90;99.90
22319;DHT22;11327;52.334;9.506;2022-09-01T00:11:21;13.80;99.90
22319;DHT22;11327;52.334;9.506;2022-09-01T00:14:43;13.80;99.90
22319;DHT22;11327;52.334;9.506;2022-09-01T00:18:04;13.80;99.90
22319;DHT22;11327;52.334;9.506;2022-09-01T00:21:28;13.80;99.90
22319;DHT22;11327;52.334;9.506;2022-09-01T00:24:50;13.70;99.90
22319;DHT22;11327;52.334;9.506;2022-09-01T00:28:11;13.70;99.90
22319;DHT22;11327;52.334;9.506;2022-09-01T00:31:32;13.60;99.90
22319;DHT22;11327;52.334;9.506;2022-09-01T00:34:53;13.60;99.90
22319;DHT22;11327;52.334;9.506;2022-09-01T00:38:15;13.60;99.90
22319;DHT22;11327;52.334;9.506;2022-09-01T00:41:38;13.50;99.90
22319;DHT22;11327;52.334;9.506;2022-09-01T00:44:59;13.50;99.90
22319;DHT22;11327;52.334;9.506;2022-09-01T00:48:20;13.40;99.90
22319;DHT22;11327;52.334;9.506;2022-09-01T00:51:44;13.40;99.90
22319;DHT22;11327;52.334;9.506;2022-09-01T00:55:11;13.40;99.90
22319;DHT22;11327;52.334;9.506;2022-09-01T00:58:33;13.30;99.90
22319;DHT22;11327;52.334;9.506;2022-09-01T01:01:55;13.30;99.90
22319;DHT22;11327;52.334;9.506;2022-09-01T01:05:17;13.30;99.90
22319;DHT22;11327;52.334;9.506;2022-09-01T01:08:42;13.30;99.90
22319;DHT22;11327;52.334;9.506;2022-09-01T01:12:07;13.20;99.90
22319;DHT22;11327;52.334;9.506;2022-09-01T01:15:30;13.20;99.90
22319;DHT22;11327;52.334;9.506;2022-09-01T01:18:52;13.20;99.90
22319;DHT22;11327;52.334;9.506;2022-09-01T01:22:18;13.10;99.90
22319;DHT22;11327;52.334;9.506;2022-09-01T01:25:58;13.00;99.90
22319;DHT22;11327;52.334;9.506;2022-09-01T01:29:22;13.00;99.90
22319;DHT22;11327;52.334;9.506;2022-09-01T01:32:45;12.90;99.90
22319;DHT22;11327;52.334;9.506;2022-09-01T01:36:17;12.90;99.90
22319;DHT22;11327;52.334;9.506;2022-09-01T01:39:37;12.90;99.90
22319;DHT22;11327;52.334;9.506;2022-09-01T01:43:00;12.90;99.90
22319;DHT22;11327;52.334;9.506;2022-09-01T01:46:21;12.80;99.90
22319;DHT22;11327;52.334;9.506;2022-09-01T01:49:43;12.80;99.90
22319;DHT22;11327;52.334;9.506;2022-09-01T01:53:06;12.80;99.90
22319;DHT22;11327;52.334;9.506;2022-09-01T01:56:27;12.70;99.90
22319;DHT22;11327;52.334;9.506;2022-09-01T01:59:48;12.70;99.90
22319;DHT22;11327;52.334;9.506;2022-09-01T02:03:10;12.70;99.90
22319;DHT22;11327;52.334;9.506;2022-09-01T02:06:34;12.70;99.90
22319;DHT22;11327;52.334;9.506;2022-09-01T02:09:55;12.70;99.90
22319;DHT22;11327;52.334;9.506;2022-09-01T02:13:19;12.70;99.90
22319;DHT22;11327;52.334;9.506;2022-09-01T02:16:40;12.60;99.90
22319;DHT22;11327;52.334;9.506;2022-09-01T02:20:02;12.60;99.90
22319;DHT22;11327;52.334;9.506;2022-09-01T02:23:23;12.60;99.90
22319;DHT22;11327;52.334;9.506;2022-09-01T02:26:44;12.60;99.90
22319;DHT22;11327;52.334;9.506;2022-09-01T02:30:08;12.50;99.90
22319;DHT22;11327;52.334;9.506;2022-09-01T02:33:30;12.50;99.90
22319;DHT22;11327;52.334;9.506;2022-09-01T02:36:53;12.40;99.90
22319;DHT22;11327;52.334;9.506;2022-09-01T02:40:14;12.40;99.90
22319;DHT22;11327;52.334;9.506;2022-09-01T02:43:35;12.30;99.90
22319;DHT22;11327;52.334;9.506;2022-09-01T02:46:56;12.30;99.90
22319;DHT22;11327;52.334;9.506;2022-09-01T02:50:18;12.20;99.90
22319;DHT22;11327;52.334;9.506;2022-09-01T02:53:41;12.20;99.90
22319;DHT22;11327;52.334;9.506;2022-09-01T02:57:02;12.20;99.90
22319;DHT22;11327;52.334;9.506;2022-09-01T03:00:23;12.10;99.90
22319;DHT22;11327;52.334;9.506;2022-09-01T03:03:56;12.00;99.90
22319;DHT22;11327;52.334;9.506;2022-09-01T03:07:17;11.90;99.90
22319;DHT22;11327;52.334;9.506;2022-09-01T03:10:42;11.80;99.90
22319;DHT22;11327;52.334;9.506;2022-09-01T03:14:04;11.80;99.90
22319;DHT22;11327;52.334;9.506;2022-09-01T03:17:25;11.80;99.90
22319;DHT22;11327;52.334;9.506;2022-09-01T03:20:46;11.80;99.90
22319;DHT22;11327;52.334;9.506;2022-09-01T03:24:10;11.80;99.90
22319;DHT22;11327;52.334;9.506;2022-09-01T03:27:33;11.80;99.90
22319;DHT22;11327;52.334;9.506;2022-09-01T03:30:55;11.70;99.90
22319;DHT22;11327;52.334;9.506;2022-09-01T03:34:16;11.80;99.90
22319;DHT22;11327;52.334;9.506;2022-09-01T03:37:39;11.80;99.90
22319;DHT22;11327;52.334;9.506;2022-09-01T03:41:04;11.80;99.90
22319;DHT22;11327;52.334;9.506;2022-09-01T03:44:26;11.70;99.90
22319;DHT22;11327;52.334;9.506;2022-09-01T03:47:47;11.60;99.90
22319;DHT22;11327;52.334;9.506;2022-09-01T03:51:08;11.70;99.90
22319;DHT22;11327;52.334;9.506;2022-09-01T03:54:29;11.60;99.90
22319;DHT22;11327;52.334;9.506;2022-09-01T03:57:53;11.60;99.90
22319;DHT22;11327;52.334;9.506;2022-09-01T04:01:15;11.60;99.90
22319;DHT22;11327;52.334;9.506;2022-09-01T04:04:36;11.50;99.90
22319;DHT22;11327;52.334;9.506;2022-09-01T04:08:00;11.40;99.90
22319;DHT22;11327;52.334;9.506;2022-09-01T04:11:22;11.40;99.90
22319;DHT22;11327;52.334;9.506;2022-09-01T04:14:43;11.40;99.90
22319;DHT22;11327;52.334;9.506;2022-09-01T04:18:06;11.40;99.90
22319;DHT22;11327;52.334;9.506;2022-09-01T04:21:32;11.30;99.90
22319;DHT22;11327;52.334;9.506;2022-09-01T04:24:53;11.30;99.90
22319;DHT22;11327;52.334;9.506;2022-09-01T04:28:14;11.40;99.90
22319;DHT22;11327;52.334;9.506;2022-09-01T04:31:37;11.40;99.90
22319;DHT22;11327;52.334;9.506;2022-09-01T04:34:59;11.40;99.90
22319;DHT22;11327;52.334;9.506;2022-09-01T04:38:23;11.30;99.90
22319;DHT22;11327;52.334;9.506;2022-09-01T04:41:45;11.30;99.90
22319;DHT22;11327;52.334;9.506;2022-09-01T04:45:07;11.30;99.90
22319;DHT22;11327;52.334;9.506;2022-09-01T04:48:30;11.30;99.90
22319;DHT22;11327;52.334;9.506;2022-09-01T04:51:52;11.30;99.90
22319;DHT22;11327;52.334;9.506;2022-09-01T04:55:14;11.30;99.90
22319;DHT22;11327;52.334;9.506;2022-09-01T04:58:37;11.30;99.90
22319;DHT22;11327;52.334;9.506;2022-09-01T05:01:59;11.30;99.90
22319;DHT22;11327;52.334;9.506;2022-09-01T05:05:22;11.20;99.90
22319;DHT22;11327;52.334;9.506;2022-09-01T05:08:44;11.30;99.90
22319;DHT22;11327;52.334;9.506;2022-09-01T05:12:06;11.20;99.90
22319;DHT22;11327;52.334;9.506;2022-09-01T05:15:36;11.20;99.90
22319;DHT22;11327;52.334;9.506;2022-09-01T05:18:58;11.20;99.90
22319;DHT22;11327;52.334;9.506;2022-09-01T05:22:20;11.30;99.90
22319;DHT22;11327;52.334;9.506;2022-09-01T05:25:42;11.30;99.90
22319;DHT22;11327;52.334;9.506;2022-09-01T05:29:04;11.30;99.90
22319;DHT22;11327;52.334;9.506;2022-09-01T05:32:27;11.30;99.90
22319;DHT22;11327;52.334;9.506;2022-09-01T05:35:54;11.40;99.90
22319;DHT22;11327;52.334;9.506;2022-09-01T05:39:15;11.50;99.90
22319;DHT22;11327;52.334;9.506;2022-09-01T05:42:36;11.60;99.90
22319;DHT22;11327;52.334;9.506;2022-09-01T05:45:59;11.70;99.90
22319;DHT22;11327;52.334;9.506;2022-09-01T05:49:24;11.80;99.90
22319;DHT22;11327;52.334;9.506;2022-09-01T05:52:47;11.90;99.90
22319;DHT22;11327;52.334;9.506;2022-09-01T05:56:09;12.00;99.90
22319;DHT22;11327;52.334;9.506;2022-09-01T05:59:32;12.10;99.90
22319;DHT22;11327;52.334;9.506;2022-09-01T06:02:53;12.20;99.90
22319;DHT22;11327;52.334;9.506;2022-09-01T06:06:16;12.30;99.90
22319;DHT22;11327;52.334;9.506;2022-09-01T06:09:40;12.50;99.90
22319;DHT22;11327;52.334;9.506;2022-09-01T06:13:02;12.60;99.90
22319;DHT22;11327;52.334;9.506;2022-09-01T06:16:26;12.80;99.90
22319;DHT22;11327;52.334;9.506;2022-09-01T06:19:48;12.90;99.90
22319;DHT22;11327;52.334;9.506;2022-09-01T06:23:10;13.00;99.90
22319;DHT22;11327;52.334;9.506;2022-09-01T06:26:36;13.20;99.90
22319;DHT22;11327;52.334;9.506;2022-09-01T06:29:58;13.40;99.90
22319;DHT22;11327;52.334;9.506;2022-09-01T06:33:19;13.60;99.90
22319;DHT22;11327;52.334;9.506;2022-09-01T06:36:43;13.80;99.90
22319;DHT22;11327;52.334;9.506;2022-09-01T06:40:06;13.90;99.90
22319;DHT22;11327;52.334;9.506;2022-09-01T06:43:30;14.20;99.90
22319;DHT22;11327;52.334;9.506;2022-09-01T06:46:52;14.40;99.90
22319;DHT22;11327;52.334;9.506;2022-09-01T06:50:15;14.50;99.90
22319;DHT22;11327;52.334;9.506;2022-09-01T06:53:36;14.70;99.90
22319;DHT22;11327;52.334;9.506;2022-09-01T06:56:57;14.90;99.90
22319;DHT22;11327;52.334;9.506;2022-09-01T07:00:18;15.00;99.90
22319;DHT22;11327;52.334;9.506;2022-09-01T07:03:45;15.20;99.90
22319;DHT22;11327;52.334;9.506;2022-09-01T07:07:08;15.40;99.90
22319;DHT22;11327;52.334;9.506;2022-09-01T07:10:29;15.60;99.90
22319;DHT22;11327;52.334;9.506;2022-09-01T07:13:53;15.70;99.90
22319;DHT22;11327;52.334;9.506;2022-09-01T07:17:14;15.80;99.90
22319;DHT22;11327;52.334;9.506;2022-09-01T07:20:35;15.90;99.90
22319;DHT22;11327;52.334;9.506;2022-09-01T07:23:59;16.10;99.90
22319;DHT22;11327;52.334;9.506;2022-09-01T07:27:21;16.30;99.90
22319;DHT22;11327;52.334;9.506;2022-09-01T07:30:47;16.50;99.90
22319;DHT22;11327;52.334;9.506;2022-09-01T07:34:11;16.70;99.90
22319;DHT22;11327;52.334;9.506;2022-09-01T07:37:33;16.90;99.90
22319;DHT22;11327;52.334;9.506;2022-09-01T07:40:55;17.00;99.90
22319;DHT22;11327;52.334;9.506;2022-09-01T07:44:17;17.30;99.90
22319;DHT22;11327;52.334;9.506;2022-09-01T07:47:38;17.40;99.90
22319;DHT22;11327;52.334;9.506;2022-09-01T07:50:59;17.60;99.90
22319;DHT22;11327;52.334;9.506;2022-09-01T07:54:20;17.70;99.90
22319;DHT22;11327;52.334;9.506;2022-09-01T07:57:44;17.90;99.90
22319;DHT22;11327;52.334;9.506;2022-09-01T08:01:07;17.90;99.90
22319;DHT22;11327;52.334;9.506;2022-09-01T08:04:29;18.20;99.90
22319;DHT22;11327;52.334;9.506;2022-09-01T08:07:52;18.40;99.90
22319;DHT22;11327;52.334;9.506;2022-09-01T08:11:19;18.50;99.90
22319;DHT22;11327;52.334;9.506;2022-09-01T08:14:40;18.70;99.90
22319;DHT22;11327;52.334;9.506;2022-09-01T08:18:01;18.60;99.90
22319;DHT22;11327;52.334;9.506;2022-09-01T08:21:23;18.60;99.90
22319;DHT22;11327;52.334;9.506;2022-09-01T08:24:44;18.80;99.90
22319;DHT22;11327;52.334;9.506;2022-09-01T08:28:06;19.10;99.90
22319;DHT22;11327;52.334;9.506;2022-09-01T08:31:27;19.30;99.90
22319;DHT22;11327;52.334;9.506;2022-09-01T08:34:48;19.40;99.90
22319;DHT22;11327;52.334;9.506;2022-09-01T08:38:09;19.60;99.90
22319;DHT22;11327;52.334;9.506;2022-09-01T08:45:03;19.90;99.90
22319;DHT22;11327;52.334;9.506;2022-09-01T08:48:40;20.10;99.90
22319;DHT22;11327;52.334;9.506;2022-09-01T08:52:10;20.10;99.90
22319;DHT22;11327;52.334;9.506;2022-09-01T08:55:39;20.30;99.90
22319;DHT22;11327;52.334;9.506;2022-09-01T08:59:00;20.40;99.90
22319;DHT22;11327;52.334;9.506;2022-09-01T09:09:49;20.80;99.90
22319;DHT22;11327;52.334;9.506;2022-09-01T09:13:31;21.00;99.90
22319;DHT22;11327;52.334;9.506;2022-09-01T09:16:45;21.10;99.90
22319;DHT22;11327;52.334;9.506;2022-09-01T09:20:08;21.10;99.90
22319;DHT22;11327;52.334;9.506;2022-09-01T09:23:34;21.20;99.90
22319;DHT22;11327;52.334;9.506;2022-09-01T09:26:56;21.30;99.90
22319;DHT22;11327;52.334;9.506;2022-09-01T09:30:21;21.20;99.90
22319;DHT22;11327;52.334;9.506;2022-09-01T09:33:46;21.40;99.90
22319;DHT22;11327;52.334;9.506;2022-09-01T09:44:30;22.10;99.90
22319;DHT22;11327;52.334;9.506;2022-09-01T09:47:54;22.20;99.90
22319;DHT22;11327;52.334;9.506;2022-09-01T09:51:20;22.30;99.90
22319;DHT22;11327;52.334;9.506;2022-09-01T09:55:06;22.40;99.90
22319;DHT22;11327;52.334;9.506;2022-09-01T09:58:40;22.60;99.90
22319;DHT22;11327;52.334;9.506;2022-09-01T10:05:43;22.90;99.90
22319;DHT22;11327;52.334;9.506;2022-09-01T10:09:16;23.10;99.90
22319;DHT22;11327;52.334;9.506;2022-09-01T10:12:37;23.10;99.90
22319;DHT22;11327;52.334;9.506;2022-09-01T10:16:14;23.20;99.90
22319;DHT22;11327;52.334;9.506;2022-09-01T10:19:32;23.30;99.00
22319;DHT22;11327;52.334;9.506;2022-09-01T10:22:55;23.20;98.40
22319;DHT22;11327;52.334;9.506;2022-09-01T10:26:36;23.10;99.10
22319;DHT22;11327;52.334;9.506;2022-09-01T10:33:29;23.50;97.80
22319;DHT22;11327;52.334;9.506;2022-09-01T10:36:50;23.50;97.00
22319;DHT22;11327;52.334;9.506;2022-09-01T10:43:48;23.80;96.20
22319;DHT22;11327;52.334;9.506;2022-09-01T10:47:30;24.00;93.50
22319;DHT22;11327;52.334;9.506;2022-09-01T10:51:33;23.90;92.50
22319;DHT22;11327;52.334;9.506;2022-09-01T10:58:07;24.00;93.20
22319;DHT22;11327;52.334;9.506;2022-09-01T11:15:47;23.80;90.40
22319;DHT22;11327;52.334;9.506;2022-09-01T11:22:57;24.10;87.40
22319;DHT22;11327;52.334;9.506;2022-09-01T11:30:08;24.10;85.00
22319;DHT22;11327;52.334;9.506;2022-09-01T11:33:58;24.50;84.80
22319;DHT22;11327;52.334;9.506;2022-09-01T11:37:21;24.40;80.40
22319;DHT22;11327;52.334;9.506;2022-09-01T11:40:42;24.80;83.50
22319;DHT22;11327;52.334;9.506;2022-09-01T11:47:47;25.00;78.90
22319;DHT22;11327;52.334;9.506;2022-09-01T11:51:05;25.00;79.80
22319;DHT22;11327;52.334;9.506;2022-09-01T11:54:27;25.10;77.10
22319;DHT22;11327;52.334;9.506;2022-09-01T11:57:49;24.90;75.60
22319;DHT22;11327;52.334;9.506;2022-09-01T12:01:57;24.80;77.90
22319;DHT22;11327;52.334;9.506;2022-09-01T12:04:35;24.80;77.50
22319;DHT22;11327;52.334;9.506;2022-09-01T12:07:58;24.80;73.30
22319;DHT22;11327;52.334;9.506;2022-09-01T12:11:23;25.00;70.80
22319;DHT22;11327;52.334;9.506;2022-09-01T12:14:54;24.80;71.00
22319;DHT22;11327;52.334;9.506;2022-09-01T12:18:20;24.70;70.60
22319;DHT22;11327;52.334;9.506;2022-09-01T12:21:42;24.20;72.40
22319;DHT22;11327;52.334;9.506;2022-09-01T12:25:04;24.10;75.70
22319;DHT22;11327;52.334;9.506;2022-09-01T12:28:27;24.50;76.50
22319;DHT22;11327;52.334;9.506;2022-09-01T12:31:52;24.80;73.80
22319;DHT22;11327;52.334;9.506;2022-09-01T12:38:38;24.80;71.30
22319;DHT22;11327;52.334;9.506;2022-09-01T12:42:05;24.60;70.90
22319;DHT22;11327;52.334;9.506;2022-09-01T12:45:45;24.40;72.30
22319;DHT22;11327;52.334;9.506;2022-09-01T12:49:17;24.60;71.40
22319;DHT22;11327;52.334;9.506;2022-09-01T12:52:47;24.30;69.70
22319;DHT22;11327;52.334;9.506;2022-09-01T12:56:22;24.00;72.00
22319;DHT22;11327;52.334;9.506;2022-09-01T12:59:44;23.90;73.00
22319;DHT22;11327;52.334;9.506;2022-09-01T13:03:14;24.00;73.70
22319;DHT22;11327;52.334;9.506;2022-09-01T13:06:35;23.90;74.50
22319;DHT22;11327;52.334;9.506;2022-09-01T13:09:56;23.80;73.30
22319;DHT22;11327;52.334;9.506;2022-09-01T13:13:18;23.50;76.70
22319;DHT22;11327;52.334;9.506;2022-09-01T13:16:39;23.40;77.10
22319;DHT22;11327;52.334;9.506;2022-09-01T13:20:00;23.50;80.70
22319;DHT22;11327;52.334;9.506;2022-09-01T13:23:21;23.60;79.30
22319;DHT22;11327;52.334;9.506;2022-09-01T13:26:42;23.40;79.60
22319;DHT22;11327;52.334;9.506;2022-09-01T13:30:06;23.30;79.50
22319;DHT22;11327;52.334;9.506;2022-09-01T13:33:27;23.10;80.50
22319;DHT22;11327;52.334;9.506;2022-09-01T13:36:48;23.00;81.90
22319;DHT22;11327;52.334;9.506;2022-09-01T13:40:09;23.00;82.00
22319;DHT22;11327;52.334;9.506;2022-09-01T13:43:33;23.00;82.80
22319;DHT22;11327;52.334;9.506;2022-09-01T13:46:54;22.90;84.30
22319;DHT22;11327;52.334;9.506;2022-09-01T13:50:17;22.90;83.90
22319;DHT22;11327;52.334;9.506;2022-09-01T13:53:39;22.80;83.60
22319;DHT22;11327;52.334;9.506;2022-09-01T13:57:00;22.90;85.20
22319;DHT22;11327;52.334;9.506;2022-09-01T14:00:27;22.80;84.50
22319;DHT22;11327;52.334;9.506;2022-09-01T14:03:48;22.80;84.10
22319;DHT22;11327;52.334;9.506;2022-09-01T14:07:10;22.90;84.50
22319;DHT22;11327;52.334;9.506;2022-09-01T14:10:31;23.00;83.20
22319;DHT22;11327;52.334;9.506;2022-09-01T14:13:52;23.20;81.30
22319;DHT22;11327;52.334;9.506;2022-09-01T14:17:13;23.40;80.40
22319;DHT22;11327;52.334;9.506;2022-09-01T14:20:37;23.40;81.30
22319;DHT22;11327;52.334;9.506;2022-09-01T14:24:01;23.50;80.30
22319;DHT22;11327;52.334;9.506;2022-09-01T14:27:22;23.70;79.50
22319;DHT22;11327;52.334;9.506;2022-09-01T14:30:43;23.40;79.40
22319;DHT22;11327;52.334;9.506;2022-09-01T14:34:05;23.30;80.80
22319;DHT22;11327;52.334;9.506;2022-09-01T14:37:26;23.20;81.10
22319;DHT22;11327;52.334;9.506;2022-09-01T14:40:47;23.10;82.10
22319;DHT22;11327;52.334;9.506;2022-09-01T14:44:10;23.30;83.20
22319;DHT22;11327;52.334;9.506;2022-09-01T14:47:31;23.50;83.10
22319;DHT22;11327;52.334;9.506;2022-09-01T14:50:53;23.60;81.00
22319;DHT22;11327;52.334;9.506;2022-09-01T14:54:14;23.70;79.50
22319;DHT22;11327;52.334;9.506;2022-09-01T14:57:35;23.70;78.40
22319;DHT22;11327;52.334;9.506;2022-09-01T15:00:56;23.90;77.70
22319;DHT22;11327;52.334;9.506;2022-09-01T15:04:18;24.00;77.70
22319;DHT22;11327;52.334;9.506;2022-09-01T15:07:40;24.10;76.90
22319;DHT22;11327;52.334;9.506;2022-09-01T15:11:01;24.30;78.20
22319;DHT22;11327;52.334;9.506;2022-09-01T15:14:22;24.50;76.60
22319;DHT22;11327;52.334;9.506;2022-09-01T15:17:43;24.50;76.20
22319;DHT22;11327;52.334;9.506;2022-09-01T15:21:05;24.60;75.50
22319;DHT22;11327;52.334;9.506;2022-09-01T15:24:26;24.50;73.90
22319;DHT22;11327;52.334;9.506;2022-09-01T15:27:47;24.50;73.40
22319;DHT22;11327;52.334;9.506;2022-09-01T15:31:08;24.50;74.70
22319;DHT22;11327;52.334;9.506;2022-09-01T15:34:30;24.60;73.40
22319;DHT22;11327;52.334;9.506;2022-09-01T15:37:51;24.70;73.50
22319;DHT22;11327;52.334;9.506;2022-09-01T15:41:16;24.60;74.40
22319;DHT22;11327;52.334;9.506;2022-09-01T15:44:37;24.50;73.70
22319;DHT22;11327;52.334;9.506;2022-09-01T15:47:58;24.40;73.80
22319;DHT22;11327;52.334;9.506;2022-09-01T15:54:47;24.30;72.80
22319;DHT22;11327;52.334;9.506;2022-09-01T15:58:09;24.20;72.90
22319;DHT22;11327;52.334;9.506;2022-09-01T16:01:33;24.10;72.40
22319;DHT22;11327;52.334;9.506;2022-09-01T16:04:55;23.90;73.10
22319;DHT22;11327;52.334;9.506;2022-09-01T16:08:16;23.60;73.80
22319;DHT22;11327;52.334;9.506;2022-09-01T16:11:39;23.50;75.50
22319;DHT22;11327;52.334;9.506;2022-09-01T16:15:00;23.40;77.70
22319;DHT22;11327;52.334;9.506;2022-09-01T16:18:31;23.40;75.30
22319;DHT22;11327;52.334;9.506;2022-09-01T16:22:12;23.60;77.90
22319;DHT22;11327;52.334;9.506;2022-09-01T16:25:33;23.70;78.30
22319;DHT22;11327;52.334;9.506;2022-09-01T16:28:56;23.70;75.40
22319;DHT22;11327;52.334;9.506;2022-09-01T16:32:18;23.70;74.80
22319;DHT22;11327;52.334;9.506;2022-09-01T16:35:43;23.70;74.70
22319;DHT22;11327;52.334;9.506;2022-09-01T16:43:08;23.80;74.20
22319;DHT22;11327;52.334;9.506;2022-09-01T16:46:34;23.60;73.30
22319;DHT22;11327;52.334;9.506;2022-09-01T16:53:49;23.20;73.40
22319;DHT22;11327;52.334;9.506;2022-09-01T17:01:00;22.90;74.20
22319;DHT22;11327;52.334;9.506;2022-09-01T17:04:34;22.80;74.90
22319;DHT22;11327;52.334;9.506;2022-09-01T17:08:07;22.70;75.30
22319;DHT22;11327;52.334;9.506;2022-09-01T17:11:34;22.50;76.00
22319;DHT22;11327;52.334;9.506;2022-09-01T17:15:06;22.40;76.90
22319;DHT22;11327;52.334;9.506;2022-09-01T17:18:44;22.30;77.30
22319;DHT22;11327;52.334;9.506;2022-09-01T17:22:10;22.20;78.00
22319;DHT22;11327;52.334;9.506;2022-09-01T17:25:42;22.10;78.40
22319;DHT22;11327;52.334;9.506;2022-09-01T17:36:15;21.80;79.80
22319;DHT22;11327;52.334;9.506;2022-09-01T17:43:27;21.50;81.20
22319;DHT22;11327;52.334;9.506;2022-09-01T17:57:37;21.10;82.10
22319;DHT22;11327;52.334;9.506;2022-09-01T18:01:02;21.10;82.60
22319;DHT22;11327;52.334;9.506;2022-09-01T18:15:18;20.60;85.60
22319;DHT22;11327;52.334;9.506;2022-09-01T18:18:41;20.50;87.60
22319;DHT22;11327;52.334;9.506;2022-09-01T18:22:10;20.30;89.40
22319;DHT22;11327;52.334;9.506;2022-09-01T18:25:37;20.30;90.50
22319;DHT22;11327;52.334;9.506;2022-09-01T18:28:59;20.20;90.80
22319;DHT22;11327;52.334;9.506;2022-09-01T18:47:14;19.90;92.40
22319;DHT22;11327;52.334;9.506;2022-09-01T18:50:49;19.90;92.60
22319;DHT22;11327;52.334;9.506;2022-09-01T18:57:38;19.80;93.40
22319;DHT22;11327;52.334;9.506;2022-09-01T19:01:05;19.70;93.70
22319;DHT22;11327;52.334;9.506;2022-09-01T19:04:31;19.70;93.90
22319;DHT22;11327;52.334;9.506;2022-09-01T19:22:50;19.40;96.00
22319;DHT22;11327;52.334;9.506;2022-09-01T19:26:17;19.30;96.50
22319;DHT22;11327;52.334;9.506;2022-09-01T19:29:43;19.30;96.90
22319;DHT22;11327;52.334;9.506;2022-09-01T19:33:04;19.20;97.30
22319;DHT22;11327;52.334;9.506;2022-09-01T19:36:39;19.20;97.70
22319;DHT22;11327;52.334;9.506;2022-09-01T19:39:59;19.10;98.20
22319;DHT22;11327;52.334;9.506;2022-09-01T19:43:20;19.10;98.60
22319;DHT22;11327;52.334;9.506;2022-09-01T19:46:54;19.10;99.10
22319;DHT22;11327;52.334;9.506;2022-09-01T19:50:24;19.00;99.40
22319;DHT22;11327;52.334;9.506;2022-09-01T20:01:00;18.50;99.90
22319;DHT22;11327;52.334;9.506;2022-09-01T20:04:51;18.40;99.90
22319;DHT22;11327;52.334;9.506;2022-09-01T20:08:21;18.20;99.90
22319;DHT22;11327;52.334;9.506;2022-09-01T20:11:55;18.10;99.90
22319;DHT22;11327;52.334;9.506;2022-09-01T20:15:20;18.00;99.90
22319;DHT22;11327;52.334;9.506;2022-09-01T20:18:47;17.90;99.90
22319;DHT22;11327;52.334;9.506;2022-09-01T20:25:48;17.80;99.90
22319;DHT22;11327;52.334;9.506;2022-09-01T20:29:46;17.70;99.90
22319;DHT22;11327;52.334;9.506;2022-09-01T20:33:14;17.50;99.90
22319;DHT22;11327;52.334;9.506;2022-09-01T20:37:01;17.40;99.90
22319;DHT22;11327;52.334;9.506;2022-09-01T20:40:38;17.30;99.90
22319;DHT22;11327;52.334;9.506;2022-09-01T20:44:00;17.30;99.90
22319;DHT22;11327;52.334;9.506;2022-09-01T20:47:26;17.20;99.90
22319;DHT22;11327;52.334;9.506;2022-09-01T20:51:00;17.20;99.90
22319;DHT22;11327;52.334;9.506;2022-09-01T20:57:49;17.00;99.90
22319;DHT22;11327;52.334;9.506;2022-09-01T21:01:32;17.00;99.90
22319;DHT22;11327;52.334;9.506;2022-09-01T21:12:42;16.60;99.90
22319;DHT22;11327;52.334;9.506;2022-09-01T21:16:13;16.50;99.90
22319;DHT22;11327;52.334;9.506;2022-09-01T21:23:07;16.40;99.90
22319;DHT22;11327;52.334;9.506;2022-09-01T21:26:28;16.30;99.90
22319;DHT22;11327;52.334;9.506;2022-09-01T21:33:21;16.20;99.90
22319;DHT22;11327;52.334;9.506;2022-09-01T21:36:42;16.10;99.90
22319;DHT22;11327;52.334;9.506;2022-09-01T21:40:04;16.10;99.90
22319;DHT22;11327;52.334;9.506;2022-09-01T21:43:32;16.00;99.90
22319;DHT22;11327;52.334;9.506;2022-09-01T21:46:54;16.00;99.90
22319;DHT22;11327;52.334;9.506;2022-09-01T21:50:16;16.00;99.90
22319;DHT22;11327;52.334;9.506;2022-09-01T21:53:37;15.80;99.90
22319;DHT22;11327;52.334;9.506;2022-09-01T21:56:59;15.80;99.90
22319;DHT22;11327;52.334;9.506;2022-09-01T22:00:23;15.70;99.90
22319;DHT22;11327;52.334;9.506;2022-09-01T22:03:44;15.70;99.90
22319;DHT22;11327;52.334;9.506;2022-09-01T22:07:06;15.60;99.90
22319;DHT22;11327;52.334;9.506;2022-09-01T22:10:30;15.60;99.90
22319;DHT22;11327;52.334;9.506;2022-09-01T22:13:52;15.50;99.90
22319;DHT22;11327;52.334;9.506;2022-09-01T22:17:13;15.50;99.90
22319;DHT22;11327;52.334;9.506;2022-09-01T22:20:34;15.50;99.90
22319;DHT22;11327;52.334;9.506;2022-09-01T22:23:55;15.40;99.90
22319;DHT22;11327;52.334;9.506;2022-09-01T22:27:16;15.30;99.90
22319;DHT22;11327;52.334;9.506;2022-09-01T22:30:47;15.30;99.90
22319;DHT22;11327;52.334;9.506;2022-09-01T22:34:05;15.20;99.90
22319;DHT22;11327;52.334;9.506;2022-09-01T22:37:27;15.20;99.90
22319;DHT22;11327;52.334;9.506;2022-09-01T22:40:51;15.10;99.90
22319;DHT22;11327;52.334;9.506;2022-09-01T22:44:14;15.00;99.90
22319;DHT22;11327;52.334;9.506;2022-09-01T22:47:36;15.00;99.90
22319;DHT22;11327;52.334;9.506;2022-09-01T22:50:57;14.90;99.90
22319;DHT22;11327;52.334;9.506;2022-09-01T22:54:18;14.90;99.90
22319;DHT22;11327;52.334;9.506;2022-09-01T22:57:39;14.80;99.90
22319;DHT22;11327;52.334;9.506;2022-09-01T23:01:00;14.70;99.90
22319;DHT22;11327;52.334;9.506;2022-09-01T23:04:22;14.70;99.90
22319;DHT22;11327;52.334;9.506;2022-09-01T23:07:44;14.60;99.90
22319;DHT22;11327;52.334;9.506;2022-09-01T23:11:05;14.50;99.90
22319;DHT22;11327;52.334;9.506;2022-09-01T23:14:26;14.50;99.90
22319;DHT22;11327;52.334;9.506;2022-09-01T23:17:48;14.40;99.90
22319;DHT22;11327;52.334;9.506;2022-09-01T23:21:12;14.30;99.90
22319;DHT22;11327;52.334;9.506;2022-09-01T23:24:33;14.30;99.90
22319;DHT22;11327;52.334;9.506;2022-09-01T23:27:54;14.30;99.90
22319;DHT22;11327;52.334;9.506;2022-09-01T23:31:19;14.30;99.90
22319;DHT22;11327;52.334;9.506;2022-09-01T23:34:40;14.30;99.90
22319;DHT22;11327;52.334;9.506;2022-09-01T23:38:01;14.20;99.90
22319;DHT22;11327;52.334;9.506;2022-09-01T23:41:25;14.20;99.90
22319;DHT22;11327;52.334;9.506;2022-09-01T23:44:48;14.20;99.90
22319;DHT22;11327;52.334;9.506;2022-09-01T23:48:10;14.20;99.90
22319;DHT22;11327;52.334;9.506;2022-09-01T23:51:34;14.20;99.90
22319;DHT22;11327;52.334;9.506;2022-09-01T23:54:55;14.10;99.90
22319;DHT22;11327;52.334;9.506;2022-09-01T23:58:17;14.00;99.90
